This is the latest recevied weather packets stored in our database for station/object WV4O. If no packets are shown the sender has not sent any weather packets the latest 10 day(s).
| Time | Temp. | Humidity | Pressure | Rain* | Wind** | Luminosity | Snow |
|---|---|---|---|---|---|---|---|
| 1778042737 | 12.22° C | 99% | 1008.6 hPa | 5.33 mm | - | 0 W/m² | - |
| 1778039718 | 18.33° C | 99% | 1006.4 hPa | 5.59 mm | - | 0 W/m² | - |
| 1778037319 | 18.33° C | 98% | 1005.5 hPa | 0.25 mm | - | 0 W/m² | - |
| 1778036119 | 18.33° C | 98% | 1005.5 hPa | 0 mm | - | 0 W/m² | - |
| 1778035536 | 17.78° C | 98% | 1005.5 hPa | 0 mm | - | 0 W/m² | - |
| 1778033721 | 17.78° C | 100% | 1005.6 hPa | 0 mm | - | 0 W/m² | - |
| 1778033121 | 17.78° C | 99% | 1005.5 hPa | 0 mm | - | 0 W/m² | - |
| 1778031317 | 17.22° C | 99% | 1005.6 hPa | 0 mm | - | 0 W/m² | - |
| 1778030138 | 17.22° C | 99% | 1005.8 hPa | 0 mm | - | 0 W/m² | - |
| 1778027717 | 17.22° C | 99% | 1006.1 hPa | 0 mm | - | 1 W/m² | - |
| 1778025918 | 17.22° C | 99% | 1006.2 hPa | 0 mm | - | 8 W/m² | - |
| 1778024718 | 17.22° C | 99% | 1006.4 hPa | 0 mm | - | 11 W/m² | - |
| 1778023516 | 17.22° C | 99% | 1006.7 hPa | 0.25 mm | - | 14 W/m² | - |
| 1778022322 | 17.22° C | 99% | 1006.7 hPa | 0.51 mm | - | 34 W/m² | - |
| 1778013963 | 20° C | 85% | 1006.9 hPa | 0 mm | - | 73 W/m² | - |
| 1778012119 | 20.56° C | 84% | 1007.1 hPa | 0 mm | - | 104 W/m² | - |
| 1778007337 | 18.89° C | 90% | 1008 hPa | 0 mm | - | 165 W/m² | - |
| 1778004318 | 17.78° C | 94% | 1008.7 hPa | 0 mm | - | 216 W/m² | - |
| 1777992917 | 15° C | 98% | 1009.9 hPa | 8.13 mm | - | 55 W/m² | - |
| 1777983316 | 17.22° C | 73% | 1008.4 hPa | 0 mm | - | 43 W/m² | - |
| 1777980338 | 16.11° C | 74% | 1008.3 hPa | 0 mm | - | 13 W/m² | - |
| 1777978517 | 16.11° C | 73% | 1008.1 hPa | 0 mm | - | 1 W/m² | - |
| 1777977317 | 16.67° C | 73% | 1008.3 hPa | 0 mm | - | 0 W/m² | - |
| 1777976718 | 16.67° C | 72% | 1008.4 hPa | 0 mm | - | 0 W/m² | - |
| 1777972518 | 17.22° C | 69% | 1008.6 hPa | 0 mm | - | 0 W/m² | - |
* Rain latest hour (hover to see other rain measurements)
** Current wind speed in m/s (hover to see current wind gust speed)